Time;durP1;ratioP1;P1;durP2;ratioP2;P2;SDS_P1;SDS_P2;PMS_P1;PMS_P2;Temp;Humidity;BMP_temperature;BMP_pressure;BME280_temperature;BME280_humidity;BME280_pressure;Samples;Min_cycle;Max_cycle;Signal;HPM_P1;HPM_P2
2023/08/23 00:00:53;;;;;;;19.35;18.67;;;23.80;99.90;;;;;;5015031;28;20209;-64
2023/08/23 00:03:20;;;;;;;25.52;24.65;;;23.80;99.90;;;;;;5015113;28;20240;-64
2023/08/23 00:05:47;;;;;;;21.08;20.35;;;23.70;99.90;;;;;;5015074;28;20224;-65
2023/08/23 00:08:15;;;;;;;22.35;21.52;;;23.60;99.90;;;;;;5014390;28;20237;-65
2023/08/23 00:10:42;;;;;;;20.08;19.35;;;23.60;99.90;;;;;;5013464;28;20228;-64
2023/08/23 00:13:09;;;;;;;21.80;21.05;;;23.60;99.90;;;;;;5014577;28;20221;-65
2023/08/23 00:15:42;;;;;;;28.15;27.17;;;23.60;99.90;;;;;;5014345;28;20211;-64
2023/08/23 00:18:09;;;;;;;23.63;22.80;;;23.60;99.90;;;;;;5014437;28;20225;-64
2023/08/23 00:20:36;;;;;;;25.42;24.48;;;23.60;99.90;;;;;;5014081;28;20197;-65
2023/08/23 00:23:02;;;;;;;29.80;28.75;;;23.50;99.90;;;;;;5014457;28;20209;-64
2023/08/23 00:25:30;;;;;;;27.08;26.13;;;23.50;99.90;;;;;;5014476;28;20208;-64
2023/08/23 00:27:58;;;;;;;32.17;31.02;;;23.50;99.90;;;;;;5014229;28;20215;-64
2023/08/23 00:30:24;;;;;;;26.08;25.15;;;23.50;99.90;;;;;;5013745;28;20225;-64
2023/08/23 00:32:51;;;;;;;31.05;29.95;;;23.50;99.90;;;;;;5014108;28;20733;-65
2023/08/23 00:35:18;;;;;;;27.97;26.97;;;23.40;99.90;;;;;;5014066;28;20228;-64
2023/08/23 00:37:45;;;;;;;26.70;25.73;;;23.50;99.90;;;;;;5014028;28;20213;-65
2023/08/23 00:40:12;;;;;;;28.80;27.80;;;23.50;99.90;;;;;;5013487;28;20208;-63
2023/08/23 00:42:40;;;;;;;34.95;33.70;;;23.50;99.90;;;;;;5014901;28;20201;-65
2023/08/23 00:45:08;;;;;;;30.75;29.67;;;23.50;99.90;;;;;;5029079;28;20276;-64
2023/08/23 00:47:35;;;;;;;28.23;27.25;;;23.40;99.90;;;;;;5035897;28;20251;-65
2023/08/23 00:50:02;;;;;;;30.40;29.33;;;23.40;99.90;;;;;;5022130;28;20669;-65
2023/08/23 00:52:30;;;;;;;20.65;19.95;;;23.40;99.90;;;;;;5013907;28;20244;-65
2023/08/23 00:54:58;;;;;;;22.38;21.60;;;23.30;99.90;;;;;;5012950;28;20201;-64
2023/08/23 00:57:26;;;;;;;32.75;31.60;;;23.30;99.90;;;;;;5013786;28;20215;-64
2023/08/23 00:59:54;;;;;;;25.02;24.17;;;23.30;99.90;;;;;;5012653;28;20275;-64
2023/08/23 01:02:21;;;;;;;20.77;20.08;;;23.30;99.90;;;;;;5014461;28;20205;-63
2023/08/23 01:04:49;;;;;;;20.90;20.17;;;23.30;99.90;;;;;;5014466;28;20205;-64
2023/08/23 01:07:19;;;;;;;28.83;27.80;;;23.30;99.90;;;;;;5012398;28;20210;-65
2023/08/23 01:09:52;;;;;;;24.58;23.70;;;23.30;99.90;;;;;;5010759;28;20598;-64
2023/08/23 01:12:34;;;;;;;24.40;23.52;;;23.40;99.90;;;;;;5012125;28;20679;-64
2023/08/23 01:15:06;;;;;;;27.80;26.83;;;23.30;99.90;;;;;;5011931;28;20691;-64
2023/08/23 01:17:33;;;;;;;26.98;26.00;;;23.20;99.90;;;;;;5011820;28;20196;-64
2023/08/23 01:20:00;;;;;;;25.50;24.63;;;23.30;99.90;;;;;;5010798;28;20320;-63
2023/08/23 01:22:30;;;;;;;24.20;23.33;;;23.30;99.90;;;;;;5012811;28;20209;-64
2023/08/23 01:24:59;;;;;;;23.48;22.60;;;23.30;99.90;;;;;;5017680;28;20273;-65
2023/08/23 01:27:26;;;;;;;22.13;21.35;;;23.30;99.90;;;;;;5011640;28;20292;-64
2023/08/23 01:29:53;;;;;;;20.70;19.98;;;23.30;99.90;;;;;;5011567;28;20229;-64
2023/08/23 01:32:36;;;;;;;22.80;21.98;;;23.30;99.90;;;;;;5011761;28;20221;-64
2023/08/23 01:35:10;;;;;;;20.92;20.20;;;23.40;99.90;;;;;;5018097;28;20232;-63
2023/08/23 01:37:39;;;;;;;18.42;17.77;;;23.50;99.90;;;;;;5012995;28;20226;-63
2023/08/23 01:40:11;;;;;;;25.25;24.38;;;23.50;99.90;;;;;;5011297;28;20240;-63
2023/08/23 01:42:40;;;;;;;17.55;16.95;;;23.50;99.90;;;;;;5011428;28;20208;-64
2023/08/23 01:45:08;;;;;;;19.80;19.13;;;23.50;99.90;;;;;;5011346;28;20683;-65
2023/08/23 01:47:35;;;;;;;23.38;22.52;;;23.40;99.90;;;;;;5011345;28;20232;-64
2023/08/23 01:50:02;;;;;;;19.23;18.55;;;23.50;99.90;;;;;;5010373;28;20233;-64
2023/08/23 01:52:28;;;;;;;21.08;20.35;;;23.50;99.90;;;;;;5011116;28;20275;-64
2023/08/23 01:54:54;;;;;;;17.60;17.00;;;23.60;99.90;;;;;;5010880;28;20722;-64
2023/08/23 01:57:22;;;;;;;17.58;16.95;;;23.60;99.90;;;;;;5011446;28;20289;-64
2023/08/23 01:59:52;;;;;;;20.00;19.33;;;23.60;99.90;;;;;;5010904;28;20340;-64
2023/08/23 02:02:18;;;;;;;16.52;15.98;;;23.60;99.90;;;;;;5014505;28;20300;-65
2023/08/23 02:04:45;;;;;;;18.75;18.10;;;23.60;99.90;;;;;;5010939;28;20211;-64
2023/08/23 02:07:12;;;;;;;25.58;24.70;;;23.60;99.90;;;;;;5010708;28;20211;-64
2023/08/23 02:09:39;;;;;;;20.83;20.10;;;23.50;99.90;;;;;;5010533;28;20630;-64
2023/08/23 02:12:06;;;;;;;18.38;17.70;;;23.50;99.90;;;;;;5012288;28;20597;-63
2023/08/23 02:14:34;;;;;;;20.55;19.85;;;23.50;99.90;;;;;;5012637;28;20223;-63
2023/08/23 02:17:01;;;;;;;17.02;16.40;;;23.40;99.90;;;;;;5012543;28;20213;-65
2023/08/23 02:19:28;;;;;;;17.58;16.95;;;23.40;99.90;;;;;;5011145;28;20258;-64
2023/08/23 02:21:55;;;;;;;23.20;22.38;;;23.50;99.90;;;;;;5012088;28;20296;-64
2023/08/23 02:24:22;;;;;;;24.50;23.65;;;23.50;99.90;;;;;;5012242;28;20212;-64
2023/08/23 02:26:48;;;;;;;23.48;22.63;;;23.40;99.90;;;;;;5011845;28;20743;-64
2023/08/23 02:29:15;;;;;;;24.83;23.92;;;23.30;99.90;;;;;;5011116;28;20247;-64
2023/08/23 02:31:43;;;;;;;25.65;24.77;;;23.30;99.90;;;;;;5011547;28;20221;-64
2023/08/23 02:34:10;;;;;;;21.55;20.80;;;23.30;99.90;;;;;;5011531;28;20661;-64
2023/08/23 02:36:37;;;;;;;24.85;24.00;;;23.30;99.90;;;;;;5011716;28;20243;-63
2023/08/23 02:39:04;;;;;;;17.77;17.15;;;23.40;99.90;;;;;;5011294;28;20631;-65
2023/08/23 02:41:30;;;;;;;19.63;18.92;;;23.40;99.90;;;;;;5010652;28;20240;-65
2023/08/23 02:43:57;;;;;;;15.45;14.95;;;23.40;99.90;;;;;;5010442;28;20851;-65
2023/08/23 02:46:24;;;;;;;15.95;15.43;;;23.50;99.90;;;;;;5010693;28;20299;-64
2023/08/23 02:48:52;;;;;;;23.45;22.63;;;23.50;99.90;;;;;;5010078;28;20241;-63
2023/08/23 02:51:19;;;;;;;15.23;14.73;;;23.50;99.90;;;;;;5009452;28;20225;-65
2023/08/23 02:53:46;;;;;;;23.97;23.13;;;23.50;99.90;;;;;;5010971;28;20235;-64
2023/08/23 02:56:13;;;;;;;20.90;20.17;;;23.50;99.90;;;;;;5010287;28;20719;-65
2023/08/23 02:58:39;;;;;;;17.52;16.92;;;23.50;99.90;;;;;;5010360;28;20343;-65
2023/08/23 03:01:06;;;;;;;20.52;19.80;;;23.50;99.90;;;;;;5009430;28;20215;-64
2023/08/23 03:03:33;;;;;;;20.33;19.60;;;23.50;99.90;;;;;;5010113;28;20583;-64
2023/08/23 03:06:01;;;;;;;19.88;19.20;;;23.50;99.90;;;;;;5010564;28;20454;-65
2023/08/23 03:08:28;;;;;;;20.63;19.93;;;23.60;99.90;;;;;;5010109;28;20307;-64
2023/08/23 03:11:03;;;;;;;24.20;23.33;;;23.60;99.90;;;;;;5008689;28;20575;-63
2023/08/23 03:13:29;;;;;;;28.13;27.15;;;23.60;99.90;;;;;;5011858;28;20196;-64
2023/08/23 03:15:56;;;;;;;16.40;15.80;;;23.60;99.90;;;;;;5010880;28;20216;-64
2023/08/23 03:18:23;;;;;;;15.63;15.05;;;23.60;99.90;;;;;;5010882;28;20233;-64
2023/08/23 03:20:50;;;;;;;22.38;21.55;;;23.60;99.90;;;;;;5010551;28;20205;-64
2023/08/23 03:23:19;;;;;;;17.90;17.27;;;23.60;99.90;;;;;;5011326;28;20211;-65
2023/08/23 03:25:49;;;;;;;21.10;20.37;;;23.50;99.90;;;;;;5011601;28;20213;-64
2023/08/23 03:28:16;;;;;;;21.48;20.73;;;23.50;99.90;;;;;;5010889;28;20287;-65
2023/08/23 03:30:43;;;;;;;21.98;21.20;;;23.40;99.90;;;;;;5010406;28;20219;-65
2023/08/23 03:33:10;;;;;;;25.77;24.88;;;23.30;99.90;;;;;;5011268;28;20225;-64
2023/08/23 03:35:37;;;;;;;23.30;22.50;;;23.10;99.90;;;;;;5011314;28;20205;-63
2023/08/23 03:38:04;;;;;;;22.63;21.83;;;23.10;99.90;;;;;;5011248;28;20212;-65
2023/08/23 03:40:37;;;;;;;27.73;26.73;;;23.20;99.90;;;;;;5010269;28;20695;-65
2023/08/23 03:43:04;;;;;;;23.50;22.70;;;23.20;99.90;;;;;;5009345;28;20712;-65
2023/08/23 03:45:31;;;;;;;27.15;26.15;;;23.20;99.90;;;;;;5010064;28;20209;-65
2023/08/23 03:47:58;;;;;;;26.40;25.45;;;23.20;99.90;;;;;;5010324;28;20215;-65
2023/08/23 03:50:24;;;;;;;26.77;25.80;;;23.30;99.90;;;;;;5010701;28;20292;-63
2023/08/23 03:52:51;;;;;;;23.00;22.15;;;23.30;99.90;;;;;;5010258;28;20264;-63
2023/08/23 03:55:18;;;;;;;21.67;20.93;;;23.20;99.90;;;;;;5009341;28;20209;-65
2023/08/23 03:57:46;;;;;;;23.73;22.93;;;23.10;99.90;;;;;;5009420;28;20216;-64
2023/08/23 04:00:14;;;;;;;21.17;20.40;;;23.00;99.90;;;;;;5009049;28;20219;-64
2023/08/23 04:02:43;;;;;;;27.57;26.60;;;23.00;99.90;;;;;;5009426;28;20380;-64
2023/08/23 04:05:11;;;;;;;24.23;23.43;;;23.10;99.90;;;;;;5009268;28;20738;-64
2023/08/23 04:07:38;;;;;;;27.25;26.30;;;23.00;99.90;;;;;;5009446;28;20209;-64
2023/08/23 04:10:06;;;;;;;26.05;25.13;;;22.90;99.90;;;;;;5006840;28;20315;-64
2023/08/23 04:12:33;;;;;;;27.27;26.30;;;22.80;99.90;;;;;;5010523;28;20225;-64
2023/08/23 04:15:01;;;;;;;26.38;25.42;;;22.80;99.90;;;;;;5010572;28;20586;-64
2023/08/23 04:17:28;;;;;;;22.55;21.73;;;22.80;99.90;;;;;;5010870;28;20213;-63
2023/08/23 04:19:55;;;;;;;20.67;19.97;;;22.80;99.90;;;;;;5009705;28;20232;-64
2023/08/23 04:22:21;;;;;;;26.73;25.80;;;22.90;99.90;;;;;;5009091;28;20198;-64
2023/08/23 04:24:49;;;;;;;21.08;20.33;;;23.00;99.90;;;;;;5009546;28;20332;-65
2023/08/23 04:27:16;;;;;;;20.80;20.08;;;22.90;99.90;;;;;;5009254;28;20209;-65
2023/08/23 04:29:43;;;;;;;25.70;24.77;;;23.00;99.90;;;;;;5010855;28;20348;-65
2023/08/23 04:32:12;;;;;;;25.67;24.73;;;23.00;99.90;;;;;;5013063;28;20221;-65
2023/08/23 04:34:39;;;;;;;29.63;28.58;;;22.90;99.90;;;;;;5012855;28;20209;-64
2023/08/23 04:37:07;;;;;;;27.55;26.55;;;22.80;99.90;;;;;;5016029;28;20208;-65
2023/08/23 04:39:34;;;;;;;26.08;25.17;;;22.70;99.90;;;;;;5013554;28;20244;-64
2023/08/23 04:42:01;;;;;;;25.67;24.73;;;22.60;99.90;;;;;;5013398;28;20205;-64
2023/08/23 04:44:29;;;;;;;21.65;20.88;;;22.60;99.90;;;;;;5014065;28;20205;-64
2023/08/23 04:46:56;;;;;;;20.58;19.85;;;22.50;99.90;;;;;;5018010;28;20216;-65
2023/08/23 04:49:24;;;;;;;23.83;23.00;;;22.60;99.90;;;;;;5016144;28;20229;-64
2023/08/23 04:51:50;;;;;;;19.47;18.77;;;22.70;99.90;;;;;;5015861;28;20235;-64
2023/08/23 04:54:17;;;;;;;16.93;16.33;;;22.80;99.90;;;;;;5020096;28;20209;-65
2023/08/23 04:56:44;;;;;;;16.23;15.63;;;22.80;99.90;;;;;;5014702;28;20209;-65
2023/08/23 04:59:11;;;;;;;17.83;17.20;;;22.80;99.90;;;;;;5015192;28;20229;-64
2023/08/23 05:01:38;;;;;;;15.87;15.37;;;22.70;99.90;;;;;;5018067;28;20201;-64
2023/08/23 05:04:07;;;;;;;15.98;15.45;;;23.00;99.90;;;;;;5013667;28;20209;-64
2023/08/23 05:06:35;;;;;;;16.93;16.33;;;23.10;99.90;;;;;;5014342;28;20300;-64
2023/08/23 05:09:04;;;;;;;16.13;15.52;;;23.10;99.90;;;;;;5013586;28;20719;-64
2023/08/23 05:11:31;;;;;;;16.53;15.93;;;23.10;99.90;;;;;;5013210;28;20207;-64
2023/08/23 05:13:58;;;;;;;17.45;16.85;;;23.20;99.90;;;;;;5013269;28;20209;-65
2023/08/23 05:16:24;;;;;;;18.27;17.60;;;23.20;99.90;;;;;;5013235;28;20209;-65
2023/08/23 05:18:51;;;;;;;15.57;14.98;;;23.20;99.90;;;;;;5012719;28;20727;-64
2023/08/23 05:21:18;;;;;;;23.77;22.97;;;23.20;99.90;;;;;;5012743;28;20217;-65
2023/08/23 05:23:46;;;;;;;19.55;18.83;;;23.20;99.90;;;;;;5013162;28;20205;-63
2023/08/23 05:26:13;;;;;;;17.75;17.15;;;23.20;99.90;;;;;;5012821;28;20710;-64
2023/08/23 05:28:40;;;;;;;20.98;20.27;;;23.30;99.90;;;;;;5012673;28;20229;-64
2023/08/23 05:31:07;;;;;;;20.80;20.07;;;23.30;99.90;;;;;;5011960;28;20578;-64
2023/08/23 05:33:33;;;;;;;16.27;15.65;;;23.30;99.90;;;;;;5012507;28;20233;-64
2023/08/23 05:36:00;;;;;;;21.40;20.65;;;23.40;99.90;;;;;;5012799;28;20204;-64
2023/08/23 05:38:28;;;;;;;24.02;23.15;;;23.40;99.90;;;;;;5012470;28;20229;-64
2023/08/23 05:40:56;;;;;;;18.03;17.40;;;23.40;99.90;;;;;;5011516;28;20216;-64
2023/08/23 05:43:23;;;;;;;23.02;22.23;;;23.40;99.90;;;;;;5012195;28;20201;-64
2023/08/23 05:45:53;;;;;;;23.83;23.00;;;23.40;99.90;;;;;;5012413;28;21066;-64
2023/08/23 05:48:20;;;;;;;21.83;21.02;;;23.50;99.90;;;;;;5012627;28;20251;-64
2023/08/23 05:50:48;;;;;;;25.30;24.38;;;23.40;99.90;;;;;;5012327;28;20209;-64
2023/08/23 05:53:18;;;;;;;19.80;19.08;;;23.50;99.90;;;;;;5012388;28;20750;-63
2023/08/23 05:55:47;;;;;;;18.95;18.25;;;23.40;99.90;;;;;;5012730;28;20205;-63
2023/08/23 05:58:15;;;;;;;19.48;18.77;;;23.40;99.90;;;;;;5012707;28;20225;-63
2023/08/23 06:00:42;;;;;;;16.23;15.63;;;23.40;99.90;;;;;;5012189;28;20205;-63
2023/08/23 06:03:09;;;;;;;19.23;18.53;;;23.40;99.90;;;;;;5012234;28;20212;-64
2023/08/23 06:05:36;;;;;;;18.65;18.00;;;23.40;99.90;;;;;;5012194;28;20777;-65
2023/08/23 06:08:04;;;;;;;17.13;16.52;;;23.40;99.90;;;;;;5012218;28;20211;-63
2023/08/23 06:10:32;;;;;;;17.38;16.73;;;23.50;99.90;;;;;;5011410;28;20279;-66
2023/08/23 06:12:58;;;;;;;17.65;16.95;;;23.60;99.90;;;;;;5011948;28;20225;-64
2023/08/23 06:15:27;;;;;;;17.33;16.73;;;23.70;99.90;;;;;;5012173;28;20209;-63
2023/08/23 06:17:55;;;;;;;17.38;16.77;;;23.80;99.90;;;;;;5011821;28;20206;-64
2023/08/23 06:20:22;;;;;;;18.33;17.65;;;23.90;99.90;;;;;;5011674;28;20211;-65
2023/08/23 06:22:49;;;;;;;16.88;16.27;;;24.00;99.90;;;;;;5012390;28;20261;-63
2023/08/23 06:25:16;;;;;;;18.20;17.50;;;24.10;99.90;;;;;;5011898;28;20205;-63
2023/08/23 06:27:44;;;;;;;16.95;16.35;;;24.20;99.90;;;;;;5011834;28;20583;-63
2023/08/23 06:30:14;;;;;;;15.70;15.10;;;24.10;99.90;;;;;;5011177;28;20228;-64
2023/08/23 06:32:45;;;;;;;17.98;17.27;;;24.00;99.90;;;;;;5011652;28;20261;-63
2023/08/23 06:35:11;;;;;;;18.45;17.75;;;24.00;99.90;;;;;;5012019;28;20676;-63
2023/08/23 06:37:38;;;;;;;18.42;17.73;;;24.10;99.90;;;;;;5013343;28;20212;-63
2023/08/23 06:40:06;;;;;;;17.85;17.15;;;24.30;99.90;;;;;;5012220;28;20226;-63
2023/08/23 06:42:34;;;;;;;17.13;16.52;;;24.30;99.90;;;;;;5011773;28;20284;-63
2023/08/23 06:45:02;;;;;;;18.20;17.23;;;24.40;99.90;;;;;;5011408;28;20205;-64
2023/08/23 06:47:28;;;;;;;17.40;16.80;;;24.50;99.90;;;;;;5011550;28;20236;-66
2023/08/23 06:49:57;;;;;;;20.98;20.17;;;24.50;99.90;;;;;;5010576;28;20233;-65
2023/08/23 06:52:24;;;;;;;16.50;15.90;;;24.60;99.90;;;;;;5010643;28;20229;-65
2023/08/23 06:54:51;;;;;;;17.38;16.77;;;24.60;99.90;;;;;;5011244;28;20209;-65
2023/08/23 06:57:20;;;;;;;16.83;16.13;;;24.60;99.90;;;;;;5011608;28;20209;-65
2023/08/23 06:59:47;;;;;;;17.03;16.43;;;24.60;99.90;;;;;;5010768;28;20252;-66
2023/08/23 07:02:13;;;;;;;17.38;16.77;;;24.70;99.90;;;;;;5011448;28;20209;-65
2023/08/23 07:04:40;;;;;;;16.40;15.80;;;24.70;99.90;;;;;;5011180;28;20300;-65
2023/08/23 07:07:08;;;;;;;24.88;23.88;;;24.80;99.90;;;;;;5011286;28;20215;-64
2023/08/23 07:09:35;;;;;;;20.85;19.95;;;24.80;99.90;;;;;;5008350;28;20225;-64
2023/08/23 07:12:02;;;;;;;19.58;18.80;;;24.70;99.90;;;;;;5009874;28;20718;-65
2023/08/23 07:14:29;;;;;;;16.98;16.33;;;24.90;99.90;;;;;;5009835;28;20227;-65
2023/08/23 07:16:56;;;;;;;18.38;17.67;;;25.00;99.90;;;;;;5010437;28;20589;-64
2023/08/23 07:19:22;;;;;;;16.58;15.98;;;25.10;99.90;;;;;;5009098;28;20230;-65
2023/08/23 07:21:49;;;;;;;16.52;15.82;;;25.00;99.90;;;;;;5010143;28;20204;-64
2023/08/23 07:24:17;;;;;;;15.40;14.80;;;25.00;99.90;;;;;;5009915;28;20208;-65
2023/08/23 07:26:44;;;;;;;16.10;15.50;;;25.10;99.90;;;;;;5009920;28;20213;-64
2023/08/23 07:29:15;;;;;;;17.35;16.70;;;25.20;99.90;;;;;;5009066;28;20229;-65
2023/08/23 07:31:42;;;;;;;16.27;15.68;;;25.30;99.90;;;;;;5009904;28;20212;-65
2023/08/23 07:34:09;;;;;;;17.00;16.40;;;25.20;99.90;;;;;;5009730;28;20236;-64
2023/08/23 07:36:36;;;;;;;17.85;17.05;;;25.30;99.90;;;;;;5009770;28;20259;-64
2023/08/23 07:39:04;;;;;;;18.38;17.70;;;25.30;99.90;;;;;;5010320;28;20226;-65
2023/08/23 07:41:32;;;;;;;16.63;16.02;;;25.40;99.90;;;;;;5010795;28;20548;-64
2023/08/23 07:43:59;;;;;;;15.02;14.50;;;25.50;99.90;;;;;;5011166;28;20209;-64
2023/08/23 07:46:25;;;;;;;14.70;14.18;;;25.60;99.90;;;;;;5011077;28;20691;-64
2023/08/23 07:48:52;;;;;;;15.75;15.15;;;25.60;99.90;;;;;;5010626;28;20319;-64
2023/08/23 07:51:19;;;;;;;18.95;18.15;;;25.70;99.90;;;;;;5010534;28;20556;-64
2023/08/23 07:53:47;;;;;;;14.90;14.30;;;25.70;99.90;;;;;;5011172;28;20615;-63
2023/08/23 07:56:13;;;;;;;15.63;15.02;;;25.70;99.90;;;;;;5009824;28;20263;-66
2023/08/23 07:58:43;;;;;;;15.23;14.63;;;25.70;99.90;;;;;;5009831;28;20239;-65
2023/08/23 08:01:09;;;;;;;16.95;16.35;;;25.70;99.90;;;;;;5011280;28;20209;-63
2023/08/23 08:03:36;;;;;;;15.48;14.88;;;25.80;99.90;;;;;;5012458;28;20209;-63
2023/08/23 08:06:03;;;;;;;16.40;15.80;;;25.80;99.90;;;;;;5013650;28;20587;-64
2023/08/23 08:08:30;;;;;;;16.42;15.82;;;25.90;99.90;;;;;;5013303;28;20231;-64
2023/08/23 08:10:57;;;;;;;17.23;16.52;;;26.00;99.90;;;;;;5012931;28;20215;-64
2023/08/23 08:13:24;;;;;;;16.75;16.15;;;26.00;99.90;;;;;;5013448;28;20228;-64
2023/08/23 08:15:52;;;;;;;17.02;16.40;;;26.00;99.90;;;;;;5013115;28;20206;-64
2023/08/23 08:18:19;;;;;;;16.50;15.90;;;26.10;99.90;;;;;;5012871;28;20342;-63
2023/08/23 08:20:48;;;;;;;16.20;15.60;;;26.30;99.90;;;;;;5011985;28;20213;-65
2023/08/23 08:23:15;;;;;;;23.05;22.15;;;26.40;99.90;;;;;;5011889;28;20205;-64
2023/08/23 08:25:42;;;;;;;24.70;23.75;;;26.40;99.90;;;;;;5014365;28;20292;-65
2023/08/23 08:28:10;;;;;;;18.23;17.42;;;26.30;99.90;;;;;;5013968;28;20311;-65
2023/08/23 08:30:37;;;;;;;17.95;17.35;;;26.30;99.90;;;;;;5013672;28;20216;-65
2023/08/23 08:33:05;;;;;;;17.50;16.90;;;26.40;99.90;;;;;;5013986;28;20229;-65
2023/08/23 08:35:32;;;;;;;37.78;36.00;;;26.60;99.90;;;;;;5013944;28;20556;-64
2023/08/23 08:37:59;;;;;;;19.10;18.40;;;26.80;99.90;;;;;;5013830;28;20205;-64
2023/08/23 08:40:26;;;;;;;19.20;18.50;;;26.80;99.90;;;;;;5013096;28;20205;-65
2023/08/23 08:42:54;;;;;;;17.83;17.15;;;26.90;99.90;;;;;;5013472;28;20209;-65
2023/08/23 08:45:20;;;;;;;18.90;18.13;;;27.00;99.90;;;;;;5014137;28;20299;-65
2023/08/23 08:47:48;;;;;;;32.05;30.77;;;27.10;99.90;;;;;;5013808;28;20667;-64
2023/08/23 08:50:16;;;;;;;20.33;19.55;;;27.20;99.90;;;;;;5012526;28;20672;-65
2023/08/23 08:52:49;;;;;;;18.45;17.75;;;27.20;99.90;;;;;;5012276;28;20212;-65
2023/08/23 08:55:18;;;;;;;18.17;17.48;;;27.20;99.90;;;;;;5012665;28;20220;-65
2023/08/23 08:57:48;;;;;;;19.30;18.60;;;27.40;99.90;;;;;;5012595;28;20212;-65
2023/08/23 09:00:16;;;;;;;18.55;17.85;;;27.60;99.90;;;;;;5013613;28;20205;-65
2023/08/23 09:02:45;;;;;;;18.90;18.10;;;27.60;99.90;;;;;;5017171;28;20212;-66
2023/08/23 09:05:12;;;;;;;20.98;20.17;;;27.80;99.90;;;;;;5016762;28;20210;-65
2023/08/23 09:07:41;;;;;;;18.50;17.88;;;27.80;99.90;;;;;;5017272;28;20207;-65
2023/08/23 09:10:08;;;;;;;19.45;18.65;;;27.90;99.90;;;;;;5012317;28;20312;-66
2023/08/23 09:12:35;;;;;;;19.45;18.75;;;27.80;99.90;;;;;;5012620;28;20205;-65
2023/08/23 09:15:05;;;;;;;19.88;19.17;;;28.00;99.90;;;;;;5011734;28;20253;-65
2023/08/23 09:17:34;;;;;;;19.55;18.85;;;27.80;99.90;;;;;;5012386;28;20675;-65
2023/08/23 09:20:06;;;;;;;19.95;19.25;;;28.00;99.90;;;;;;5011746;28;20229;-65
2023/08/23 09:22:33;;;;;;;19.60;18.88;;;28.10;99.90;;;;;;5012998;28;20217;-66
2023/08/23 09:25:01;;;;;;;19.98;19.27;;;28.20;99.90;;;;;;5015697;28;20197;-65
2023/08/23 09:27:28;;;;;;;26.45;25.40;;;28.20;99.90;;;;;;5018019;28;20246;-65
2023/08/23 09:29:56;;;;;;;20.48;19.77;;;28.30;99.90;;;;;;5014259;28;20229;-65
2023/08/23 09:32:22;;;;;;;21.80;21.00;;;28.50;99.90;;;;;;5012532;28;20675;-65
2023/08/23 09:34:49;;;;;;;21.35;20.55;;;28.40;99.90;;;;;;5012824;28;20715;-64
2023/08/23 09:37:18;;;;;;;21.50;20.70;;;28.20;99.90;;;;;;5011818;28;20211;-65
2023/08/23 09:39:45;;;;;;;21.05;20.27;;;28.40;99.90;;;;;;5010381;28;20237;-67
2023/08/23 09:42:15;;;;;;;20.67;19.83;;;28.70;99.90;;;;;;5011562;28;20210;-65
2023/08/23 09:44:45;;;;;;;19.02;18.23;;;28.90;99.90;;;;;;5011635;28;20186;-66
2023/08/23 09:47:15;;;;;;;20.20;19.50;;;28.90;99.90;;;;;;5012198;28;20602;-65
2023/08/23 09:49:44;;;;;;;19.80;19.05;;;29.10;99.90;;;;;;5010559;28;20707;-65
2023/08/23 09:52:12;;;;;;;25.88;24.83;;;29.20;99.90;;;;;;5011353;28;20205;-65
2023/08/23 09:54:50;;;;;;;19.50;18.77;;;29.30;99.90;;;;;;5011857;28;20232;-65
2023/08/23 09:57:19;;;;;;;20.02;19.33;;;28.90;99.90;;;;;;5011314;28;20402;-65
2023/08/23 09:59:46;;;;;;;18.52;17.83;;;28.90;99.90;;;;;;5011166;28;20230;-65
2023/08/23 10:02:17;;;;;;;36.70;35.05;;;28.90;99.90;;;;;;5012305;28;20205;-65
2023/08/23 10:04:44;;;;;;;30.98;29.48;;;29.00;99.90;;;;;;5012350;28;20205;-65
2023/08/23 10:07:13;;;;;;;18.25;17.60;;;28.80;99.90;;;;;;5012659;28;20205;-66
2023/08/23 10:09:40;;;;;;;31.20;29.42;;;28.80;99.90;;;;;;5011479;28;20225;-65
2023/08/23 10:12:09;;;;;;;18.98;18.30;;;28.80;99.90;;;;;;5012373;28;20213;-64
2023/08/23 10:14:41;;;;;;;20.70;19.90;;;28.80;99.90;;;;;;5011744;28;20721;-65
2023/08/23 10:17:09;;;;;;;18.00;17.30;;;29.10;99.90;;;;;;5012567;28;20189;-65
2023/08/23 10:19:37;;;;;;;17.17;16.48;;;29.20;99.90;;;;;;5011239;28;20734;-69
2023/08/23 10:22:04;;;;;;;15.48;14.98;;;29.30;99.90;;;;;;5012419;28;20310;-64
2023/08/23 10:24:32;;;;;;;14.35;13.85;;;29.40;99.90;;;;;;5012091;28;20205;-66
2023/08/23 10:27:06;;;;;;;17.08;16.40;;;29.60;99.90;;;;;;5012018;28;20743;-66
2023/08/23 10:29:34;;;;;;;16.38;15.77;;;29.40;99.90;;;;;;5011252;28;20236;-65
2023/08/23 10:32:06;;;;;;;15.52;14.95;;;29.50;99.90;;;;;;5011614;28;20636;-65
2023/08/23 10:34:35;;;;;;;20.83;20.02;;;29.60;99.90;;;;;;5011963;28;20597;-66
2023/08/23 10:37:13;;;;;;;17.17;16.58;;;29.60;99.90;;;;;;5015108;28;20488;-66
2023/08/23 10:39:47;;;;;;;16.25;15.65;;;29.50;99.90;;;;;;5017944;28;20487;-65
2023/08/23 10:42:14;;;;;;;15.85;15.25;;;29.60;99.90;;;;;;5017781;28;20209;-66
2023/08/23 10:44:50;;;;;;;15.90;15.30;;;29.70;99.90;;;;;;5013691;28;20201;-65
2023/08/23 10:47:19;;;;;;;14.32;13.82;;;29.90;99.90;;;;;;5010565;28;20185;-66
2023/08/23 10:49:47;;;;;;;13.70;13.20;;;30.00;99.90;;;;;;5009186;28;20679;-66
2023/08/23 10:52:13;;;;;;;14.02;13.43;;;30.00;99.90;;;;;;5010351;28;20578;-66
2023/08/23 10:54:41;;;;;;;13.48;12.98;;;30.00;99.90;;;;;;5010431;28;20229;-66
2023/08/23 10:57:10;;;;;;;14.45;13.95;;;30.10;99.90;;;;;;5010324;28;20264;-64
2023/08/23 10:59:37;;;;;;;13.68;13.18;;;30.20;99.90;;;;;;5009760;28;20265;-65
2023/08/23 11:02:03;;;;;;;13.43;12.93;;;30.30;99.90;;;;;;5010453;28;20641;-65
2023/08/23 11:04:32;;;;;;;13.43;12.93;;;30.30;99.90;;;;;;5010096;28;20651;-65
2023/08/23 11:06:59;;;;;;;13.32;12.80;;;30.30;99.90;;;;;;5009982;28;20209;-64
2023/08/23 11:09:26;;;;;;;14.23;13.63;;;30.40;99.90;;;;;;5008164;28;20600;-66
2023/08/23 11:11:53;;;;;;;14.60;13.90;;;30.50;99.90;;;;;;5011245;28;20208;-65
2023/08/23 11:14:20;;;;;;;12.75;12.25;;;30.20;99.90;;;;;;5010753;28;20268;-64
2023/08/23 11:16:46;;;;;;;17.67;16.90;;;30.10;99.90;;;;;;5011285;28;20215;-65
2023/08/23 11:19:13;;;;;;;15.00;14.40;;;30.30;99.90;;;;;;5009285;28;20720;-64
2023/08/23 11:21:42;;;;;;;14.63;14.05;;;30.40;99.90;;;;;;5010061;28;20205;-66
2023/08/23 11:24:09;;;;;;;14.45;13.95;;;30.50;99.90;;;;;;5009965;28;20209;-65
2023/08/23 11:26:36;;;;;;;12.88;12.38;;;30.70;99.90;;;;;;5009894;28;20219;-66
2023/08/23 11:29:04;;;;;;;15.57;14.98;;;30.70;99.90;;;;;;5009529;28;20221;-66
2023/08/23 11:31:33;;;;;;;13.98;13.48;;;30.60;99.90;;;;;;5011336;28;20209;-66
2023/08/23 11:34:06;;;;;;;13.15;12.65;;;30.50;99.90;;;;;;5010291;28;20291;-65
2023/08/23 11:36:33;;;;;;;12.50;12.10;;;30.50;99.90;;;;;;5010032;28;20313;-65
2023/08/23 11:39:04;;;;;;;13.85;13.35;;;30.60;99.90;;;;;;5012354;28;20224;-67
2023/08/23 11:41:33;;;;;;;12.55;12.05;;;30.70;99.90;;;;;;5013890;28;20221;-65
2023/08/23 11:44:04;;;;;;;12.93;12.43;;;30.60;99.90;;;;;;5013559;28;20286;-65
2023/08/23 11:46:31;;;;;;;12.75;12.25;;;30.70;99.90;;;;;;5013379;28;20646;-65
2023/08/23 11:48:58;;;;;;;17.70;17.00;;;30.70;99.90;;;;;;5011060;28;20237;-68
2023/08/23 11:51:24;;;;;;;12.93;12.43;;;30.80;99.90;;;;;;5013897;28;20213;-66
2023/08/23 11:53:55;;;;;;;11.90;11.50;;;30.50;99.90;;;;;;5015164;28;20221;-64
2023/08/23 11:56:23;;;;;;;21.05;20.20;;;30.50;99.90;;;;;;5016120;28;20205;-64
2023/08/23 11:58:49;;;;;;;11.98;11.57;;;30.70;99.90;;;;;;5015654;28;20235;-64
2023/08/23 12:01:16;;;;;;;11.70;11.30;;;30.80;99.90;;;;;;5014407;28;20207;-64
2023/08/23 12:03:44;;;;;;;12.50;12.00;;;31.00;99.90;;;;;;5014646;28;20690;-65
2023/08/23 12:06:12;;;;;;;12.05;11.55;;;31.10;99.90;;;;;;5014149;28;20726;-66
2023/08/23 12:08:39;;;;;;;17.00;16.25;;;31.20;99.90;;;;;;5014481;28;20312;-65
2023/08/23 12:11:06;;;;;;;11.75;11.35;;;31.20;99.90;;;;;;5013399;28;20255;-66
2023/08/23 12:13:34;;;;;;;13.05;12.55;;;31.10;99.90;;;;;;5014137;28;20213;-66
2023/08/23 12:16:01;;;;;;;12.43;12.00;;;31.30;99.90;;;;;;5014072;28;20606;-66
2023/08/23 12:18:28;;;;;;;11.90;11.50;;;31.30;99.90;;;;;;5014058;28;20229;-66
2023/08/23 12:20:54;;;;;;;15.00;14.40;;;31.30;99.90;;;;;;5013890;28;20205;-65
2023/08/23 12:23:21;;;;;;;12.05;11.65;;;31.20;99.90;;;;;;5014377;28;20725;-65
2023/08/23 12:25:48;;;;;;;13.00;12.40;;;31.30;99.90;;;;;;5014800;28;20555;-65
2023/08/23 12:28:16;;;;;;;11.85;11.45;;;31.40;99.90;;;;;;5014981;28;20225;-65
2023/08/23 12:30:44;;;;;;;12.27;11.88;;;31.60;99.90;;;;;;5014105;28;20260;-66